Ulan Bator, Mongolia
Current Conditions -  °F | °C
As of 3:00 PM on Friday 28 Nov 2014 (Local Time) from ZMUB Reporting Station
Scattered Clouds Scattered Clouds  
Wind Chill: -10°   Ceiling: Unl
Heat Index: -10°   Visibility: 4mi
Dew Point: -20°   Wind: 0mph
Humidity: 45%   Direction: NA
Pressure: 29.65"   Gusts: NA
Location:  47.92°N, 106.91°E
Report Text: ZMUB 280700Z 00000MPS 6000NW SCT100 M10/M20 Q1004 NOSIG RMK QFE646.8 39 NW MO
Loading
Personal Weather Stations






























Interactive Weather Map New forecast layout! Learn more

10-Day Weather Forecast

Advertisements
Track Severe Weather on mobile